Indianapolis, Indiana
Traffic Map
Current Weather Conditions
Indianapolis, Indiana
Clear Haze
Clear
53°
Feels Like: 53°
Wind Chill: 53° Ceiling: Unl
Heat Index: 53° Visibility: 6mi
Dew Point: 49° Wind: 7mph
Humidity: 86% Direction: 200° (SSW)
Pressure: 30.1in Gusts: 0mph
Raw Report DataKIND 170254Z 20006KT 6SM BR CLR 12/09 A3010 RMK AO2 SLP193 T01170094 50003
Traffic Incident Summary
Active as of:
Severity:
Category:
InformationThere was an issue retrieving the traffic information for this location. Please try a different location or try again shortly.
Advertisements
Track Severe Weather on mobile